createdAt,value
2022-08-26T00:02:07.596Z,81.22
2022-08-26T00:04:36.231Z,81.04
2022-08-26T00:07:08.278Z,81.24
2022-08-26T00:09:40.371Z,81.23
2022-08-26T00:12:12.388Z,81.33
2022-08-26T00:14:43.662Z,81.50
2022-08-26T00:17:11.802Z,81.90
2022-08-26T00:19:39.794Z,81.80
2022-08-26T00:22:08.304Z,81.96
2022-08-26T00:24:36.362Z,82.04
2022-08-26T00:27:24.034Z,82.52
2022-08-26T00:29:53.755Z,82.41
2022-08-26T00:32:25.053Z,82.41
2022-08-26T00:34:54.232Z,83.08
2022-08-26T00:37:22.170Z,83.14
2022-08-26T00:39:50.463Z,82.91
2022-08-26T00:42:21.222Z,83.03
2022-08-26T00:44:51.083Z,82.92
2022-08-26T00:47:53.838Z,83.63
2022-08-26T00:50:40.558Z,83.33
2022-08-26T00:53:24.079Z,83.46
2022-08-26T00:56:21.412Z,83.60
2022-08-26T00:58:50.463Z,83.62
2022-08-26T01:01:18.849Z,84.09
2022-08-26T01:03:51.523Z,84.05
2022-08-26T01:06:23.649Z,84.26
2022-08-26T01:08:52.607Z,84.23
2022-08-26T01:11:21.015Z,84.44
2022-08-26T01:13:53.416Z,84.16
2022-08-26T01:16:25.817Z,84.20
2022-08-26T01:19:03.636Z,84.12
2022-08-26T01:22:00.366Z,84.13
2022-08-26T01:24:29.772Z,84.64
2022-08-26T01:27:05.255Z,84.57
2022-08-26T01:29:34.926Z,84.83
2022-08-26T01:32:05.151Z,84.85
2022-08-26T01:34:37.575Z,85.01
2022-08-26T01:37:16.076Z,84.95
2022-08-26T01:39:48.525Z,84.57
2022-08-26T01:42:19.467Z,85.08
2022-08-26T01:45:06.006Z,85.17
2022-08-26T01:47:35.833Z,85.19
2022-08-26T01:50:12.608Z,85.15
2022-08-26T01:52:49.942Z,85.14
2022-08-26T01:55:32.060Z,85.46
2022-08-26T01:58:09.915Z,85.53
2022-08-26T02:00:38.278Z,85.56
2022-08-26T02:03:17.436Z,85.46
2022-08-26T02:05:59.750Z,85.62
2022-08-26T02:08:40.714Z,85.64
2022-08-26T02:11:10.430Z,85.66
2022-08-26T02:13:55.782Z,85.46
2022-08-26T02:16:27.816Z,85.64
2022-08-26T02:19:00.158Z,85.60
2022-08-26T02:21:38.427Z,85.68
2022-08-26T02:24:17.523Z,85.84
2022-08-26T02:26:48.843Z,86.01
2022-08-26T02:29:36.307Z,85.87
2022-08-26T02:38:50.465Z,85.90
2022-08-26T02:41:20.133Z,86.07
2022-08-26T02:43:50.941Z,86.13
2022-08-26T02:46:21.478Z,86.21
2022-08-26T02:48:56.362Z,86.47
2022-08-26T02:51:24.248Z,86.23
2022-08-26T02:54:10.843Z,86.23
2022-08-26T02:56:41.470Z,86.36
2022-08-26T02:59:12.516Z,86.49
2022-08-26T03:01:41.807Z,86.50
2022-08-26T03:04:12.333Z,86.54
2022-08-26T03:06:40.687Z,86.47
2022-08-26T03:09:09.865Z,86.40
2022-08-26T03:11:42.208Z,86.65
2022-08-26T03:14:13.617Z,86.72
2022-08-26T03:16:42.880Z,86.84
2022-08-26T03:19:12.233Z,86.88
2022-08-26T03:21:44.197Z,86.80
2022-08-26T03:24:12.735Z,86.76
2022-08-26T03:26:40.995Z,86.68
2022-08-26T03:29:41.434Z,86.75
2022-08-26T03:32:09.666Z,86.86
2022-08-26T03:34:38.819Z,86.70
2022-08-26T03:37:06.870Z,86.67
2022-08-26T03:39:35.488Z,86.63
2022-08-26T03:42:06.653Z,86.77
2022-08-26T03:44:40.121Z,86.83
2022-08-26T03:47:12.023Z,86.86
2022-08-26T03:49:43.028Z,87.06
2022-08-26T03:52:11.340Z,87.02
2022-08-26T03:54:40.698Z,87.06
2022-08-26T03:57:11.500Z,87.08
2022-08-26T03:59:41.327Z,86.85
2022-08-26T04:02:11.715Z,87.07
2022-08-26T04:04:42.452Z,86.91
2022-08-26T04:07:13.037Z,86.99
2022-08-26T04:09:40.950Z,86.91
2022-08-26T04:12:10.825Z,87.19
2022-08-26T04:14:39.354Z,87.26
2022-08-26T04:17:07.409Z,87.49
2022-08-26T04:19:36.034Z,87.64
2022-08-26T04:22:05.131Z,87.55
2022-08-26T04:24:35.111Z,87.69
2022-08-26T04:27:03.709Z,87.80
2022-08-26T04:29:32.592Z,87.72
2022-08-26T04:32:00.872Z,87.85
2022-08-26T04:34:29.788Z,88.00
2022-08-26T04:37:02.840Z,88.17
2022-08-26T04:39:31.425Z,88.16
2022-08-26T04:42:01.650Z,88.23
2022-08-26T04:44:30.443Z,88.42
2022-08-26T04:46:58.867Z,88.20
2022-08-26T04:49:27.733Z,88.15
2022-08-26T04:51:55.871Z,88.20
2022-08-26T04:54:25.170Z,88.31
2022-08-26T04:56:54.343Z,88.33
2022-08-26T04:59:22.335Z,88.29
2022-08-26T05:02:00.725Z,88.49
2022-08-26T05:04:30.373Z,88.63
2022-08-26T05:07:02.430Z,88.70
2022-08-26T05:09:34.360Z,88.61
2022-08-26T05:12:02.184Z,88.57
2022-08-26T05:14:32.653Z,88.47
2022-08-26T05:17:02.932Z,88.53
2022-08-26T05:19:33.128Z,88.53
2022-08-26T05:22:01.787Z,88.48
2022-08-26T05:24:31.270Z,88.43
2022-08-26T05:26:59.150Z,88.39
2022-08-26T05:29:28.102Z,88.31
2022-08-26T05:32:04.106Z,88.19
2022-08-26T05:34:34.651Z,88.00
2022-08-26T05:37:04.891Z,87.93
2022-08-26T05:39:33.971Z,87.83
2022-08-26T05:42:08.552Z,87.71
2022-08-26T05:44:55.742Z,87.66
2022-08-26T05:47:25.732Z,87.43
2022-08-26T05:49:54.550Z,87.28
2022-08-26T05:52:24.674Z,87.14
2022-08-26T05:54:54.401Z,86.94
2022-08-26T05:57:23.101Z,86.86
2022-08-26T05:59:52.052Z,86.85
2022-08-26T06:02:21.691Z,86.75
2022-08-26T06:04:50.913Z,86.64
2022-08-26T06:13:40.455Z,86.31
2022-08-26T06:16:15.506Z,86.28
2022-08-26T06:18:48.263Z,86.06
2022-08-26T06:21:25.216Z,85.88
2022-08-26T06:24:17.998Z,85.88
2022-08-26T06:27:05.800Z,85.53
2022-08-26T06:29:36.052Z,85.18
2022-08-26T06:32:04.841Z,85.20
2022-08-26T06:34:32.973Z,85.08
2022-08-26T06:37:06.363Z,85.06
2022-08-26T06:39:34.590Z,84.74
2022-08-26T06:42:06.132Z,84.45
2022-08-26T06:44:34.585Z,84.19
2022-08-26T06:47:02.421Z,83.98
2022-08-26T06:49:35.227Z,83.70
2022-08-26T06:52:04.923Z,83.29
2022-08-26T06:54:32.843Z,83.16
2022-08-26T06:57:01.438Z,82.86
2022-08-26T06:59:31.407Z,82.31
2022-08-26T07:01:59.553Z,82.17
2022-08-26T07:04:28.183Z,82.01
2022-08-26T07:06:56.864Z,81.52
2022-08-26T07:09:30.400Z,80.96
2022-08-26T07:11:59.518Z,80.43
2022-08-26T07:14:27.330Z,80.25
2022-08-26T07:16:55.242Z,79.47
2022-08-26T07:19:30.146Z,78.95
2022-08-26T07:22:03.949Z,78.44
2022-08-26T07:24:38.534Z,78.16
2022-08-26T07:27:11.626Z,77.60
2022-08-26T07:29:41.256Z,77.10
2022-08-26T07:32:11.670Z,76.75
2022-08-26T07:34:40.370Z,76.44
2022-08-26T07:37:10.068Z,76.26
2022-08-26T07:39:40.416Z,75.14
2022-08-26T07:42:10.801Z,74.33
2022-08-26T07:44:40.535Z,74.28
2022-08-26T07:47:10.489Z,74.17
2022-08-26T07:49:56.316Z,73.98
2022-08-26T07:52:28.030Z,72.78
2022-08-26T07:54:59.042Z,71.59
2022-08-26T07:57:28.594Z,70.11
2022-08-26T07:59:57.405Z,69.64
2022-08-26T08:02:28.452Z,65.76
2022-08-26T08:04:58.588Z,65.38
2022-08-26T08:07:44.993Z,63.74
2022-08-26T08:10:21.101Z,63.96
2022-08-26T08:12:51.063Z,63.31
2022-08-26T08:15:25.193Z,61.41
2022-08-26T08:17:54.060Z,61.64
2022-08-26T08:20:27.008Z,60.67
2022-08-26T08:22:56.624Z,59.46
2022-08-26T08:25:26.720Z,58.32
2022-08-26T08:27:54.586Z,57.62
2022-08-26T08:30:23.325Z,57.46
2022-08-26T08:32:52.459Z,57.45
2022-08-26T08:35:23.564Z,54.60
2022-08-26T08:37:54.566Z,54.76
2022-08-26T08:40:26.374Z,54.62
2022-08-26T08:43:14.275Z,53.04
2022-08-26T08:46:00.074Z,52.82
2022-08-26T08:48:36.451Z,53.11
2022-08-26T08:51:39.967Z,51.31
2022-08-26T08:54:08.799Z,48.47
2022-08-26T08:56:55.203Z,48.99
2022-08-26T08:59:28.559Z,48.60
2022-08-26T09:02:19.339Z,46.18
2022-08-26T09:04:54.967Z,46.11
2022-08-26T09:07:35.885Z,44.95
2022-08-26T09:10:22.093Z,41.51
2022-08-26T09:12:52.903Z,42.23
2022-08-26T09:15:42.441Z,41.08
2022-08-26T09:18:22.213Z,41.49
2022-08-26T09:21:19.758Z,41.47
2022-08-26T09:23:49.615Z,40.85
2022-08-26T09:26:41.160Z,40.53
2022-08-26T09:32:21.355Z,41.15
2022-08-26T09:34:53.998Z,38.95
2022-08-26T09:37:38.774Z,38.61
2022-08-26T09:40:23.811Z,39.21
2022-08-26T09:43:22.673Z,39.06
2022-08-26T09:46:20.560Z,38.51
2022-08-26T09:48:48.591Z,39.33
2022-08-26T09:51:23.278Z,37.87
2022-08-26T09:54:01.451Z,37.10
2022-08-26T09:56:37.161Z,37.98
2022-08-26T09:59:10.941Z,37.96
2022-08-26T10:01:44.716Z,37.07
2022-08-26T10:04:23.607Z,37.04
2022-08-26T10:07:02.255Z,36.02
2022-08-26T10:09:36.045Z,35.51
2022-08-26T10:12:11.495Z,35.82
2022-08-26T10:14:48.273Z,34.73
2022-08-26T10:17:40.123Z,35.21
2022-08-26T10:20:23.572Z,35.12
2022-08-26T10:23:07.557Z,35.13
2022-08-26T10:25:46.572Z,35.55
2022-08-26T10:28:48.839Z,35.25
2022-08-26T10:31:28.134Z,34.97
2022-08-26T10:34:00.137Z,33.68
2022-08-26T10:37:14.547Z,34.56
2022-08-26T10:40:03.426Z,34.33
2022-08-26T10:42:47.074Z,34.25
2022-08-26T10:45:22.442Z,33.30
2022-08-26T10:48:08.698Z,33.15
2022-08-26T10:50:43.725Z,34.38
2022-08-26T10:53:25.118Z,34.37
2022-08-26T10:56:06.531Z,34.54
2022-08-26T10:59:12.298Z,34.06
2022-08-26T11:01:51.101Z,34.62
2022-08-26T11:05:06.252Z,33.84
2022-08-26T11:07:37.902Z,34.72
2022-08-26T11:10:13.113Z,35.31
2022-08-26T11:13:04.009Z,34.43
2022-08-26T11:15:32.293Z,34.89
2022-08-26T11:18:35.605Z,34.86
2022-08-26T11:21:03.842Z,35.13
2022-08-26T11:23:50.579Z,34.72
2022-08-26T11:26:35.759Z,33.33
2022-08-26T11:29:12.958Z,33.32
2022-08-26T11:31:41.558Z,34.12
2022-08-26T11:34:14.057Z,33.46
2022-08-26T11:36:54.828Z,33.18
2022-08-26T11:40:04.072Z,32.93
2022-08-26T11:42:42.754Z,33.73
2022-08-26T11:45:32.261Z,32.41
2022-08-26T11:48:21.917Z,32.04
2022-08-26T11:50:57.553Z,32.62
2022-08-26T11:53:27.149Z,32.97
2022-08-26T11:55:58.905Z,32.39
2022-08-26T11:58:28.234Z,32.50
2022-08-26T12:01:09.855Z,32.78
2022-08-26T12:03:45.623Z,33.07
2022-08-26T12:06:28.170Z,32.51
2022-08-26T12:09:00.164Z,32.47
2022-08-26T12:11:33.621Z,32.93
2022-08-26T12:14:20.785Z,32.32
2022-08-26T12:16:50.274Z,31.28
2022-08-26T12:19:33.909Z,31.50
2022-08-26T12:22:20.880Z,31.57
2022-08-26T12:24:58.567Z,31.80
2022-08-26T12:27:31.602Z,31.69
2022-08-26T12:30:14.008Z,31.51
2022-08-26T12:33:03.909Z,30.46
2022-08-26T12:35:54.363Z,29.46
2022-08-26T12:38:24.151Z,29.53
2022-08-26T12:40:52.722Z,30.02
2022-08-26T12:43:45.213Z,30.02
2022-08-26T12:46:18.313Z,30.46
2022-08-26T12:48:49.042Z,30.08
2022-08-26T12:51:29.763Z,30.66
2022-08-26T12:53:58.716Z,31.16
2022-08-26T12:56:39.617Z,31.35
2022-08-26T12:59:25.316Z,30.75
2022-08-26T13:01:56.901Z,30.50
2022-08-26T13:04:37.309Z,29.99
2022-08-26T13:07:26.614Z,29.91
2022-08-26T13:09:58.077Z,29.72
2022-08-26T13:12:25.975Z,30.35
2022-08-26T13:15:01.866Z,30.00
2022-08-26T13:17:30.980Z,29.22
2022-08-26T13:20:03.490Z,29.52
2022-08-26T13:22:32.426Z,29.29
2022-08-26T13:25:00.292Z,29.60
2022-08-26T13:27:28.084Z,29.70
2022-08-26T13:29:57.753Z,29.42
2022-08-26T13:32:27.522Z,29.27
2022-08-26T13:34:56.721Z,28.83
2022-08-26T13:37:34.452Z,28.63
2022-08-26T13:40:07.259Z,29.66
2022-08-26T13:42:35.221Z,30.16
2022-08-26T13:45:04.119Z,30.12
2022-08-26T13:47:32.442Z,29.42
2022-08-26T13:50:00.253Z,29.38
2022-08-26T13:52:30.661Z,29.60
2022-08-26T13:55:00.706Z,29.93
2022-08-26T13:57:30.547Z,30.00
2022-08-26T13:59:59.575Z,30.33
2022-08-26T14:02:28.201Z,30.04
2022-08-26T14:04:56.511Z,29.89
2022-08-26T14:07:26.335Z,30.15
2022-08-26T14:09:54.515Z,30.63
2022-08-26T14:12:22.795Z,30.50
2022-08-26T14:14:51.412Z,30.68
2022-08-26T14:17:22.254Z,30.64
2022-08-26T14:19:50.852Z,30.89
2022-08-26T14:22:22.654Z,30.86
2022-08-26T14:24:50.738Z,31.63
2022-08-26T14:27:21.237Z,31.58
2022-08-26T14:29:49.666Z,31.48
2022-08-26T14:32:57.758Z,31.53
2022-08-26T14:35:24.346Z,31.78
2022-08-26T14:37:52.829Z,31.96
2022-08-26T14:40:22.694Z,31.87
2022-08-26T14:42:54.605Z,31.65
2022-08-26T14:45:32.055Z,31.76
2022-08-26T14:48:02.918Z,31.90
2022-08-26T14:50:32.963Z,32.59
2022-08-26T14:53:19.841Z,33.19
2022-08-26T14:55:49.998Z,32.34
2022-08-26T14:58:18.025Z,32.44
2022-08-26T15:00:46.002Z,32.15
2022-08-26T15:05:48.015Z,32.82
2022-08-26T15:08:18.439Z,33.00
2022-08-26T15:10:46.853Z,33.11
2022-08-26T15:13:14.854Z,33.00
2022-08-26T15:15:46.907Z,32.97
2022-08-26T15:18:14.971Z,32.56
2022-08-26T15:20:43.170Z,32.62
2022-08-26T15:23:11.705Z,32.95
2022-08-26T15:25:44.067Z,32.61
2022-08-26T15:28:12.451Z,33.04
2022-08-26T15:30:40.348Z,33.49
2022-08-26T15:33:15.202Z,33.46
2022-08-26T15:35:44.029Z,33.23
2022-08-26T15:38:12.717Z,33.09
2022-08-26T15:40:40.820Z,34.04
2022-08-26T15:43:25.478Z,33.30
2022-08-26T15:45:56.653Z,33.25
2022-08-26T15:48:25.369Z,33.45
2022-08-26T15:50:57.802Z,33.97
2022-08-26T15:53:28.079Z,33.85
2022-08-26T15:55:57.748Z,34.10
2022-08-26T15:58:27.276Z,34.17
2022-08-26T16:00:56.701Z,34.33
2022-08-26T16:03:25.827Z,34.11
2022-08-26T16:05:54.214Z,34.31
2022-08-26T16:08:22.536Z,34.58
2022-08-26T16:10:51.581Z,34.74
2022-08-26T16:13:40.094Z,34.96
2022-08-26T16:16:08.486Z,34.64
2022-08-26T16:18:39.049Z,35.30
2022-08-26T16:21:25.762Z,35.59
2022-08-26T16:23:54.119Z,35.83
2022-08-26T16:26:28.050Z,34.96
2022-08-26T16:28:56.155Z,35.33
2022-08-26T16:31:27.700Z,35.76
2022-08-26T16:33:55.564Z,35.72
2022-08-26T16:36:24.778Z,36.09
2022-08-26T16:38:55.863Z,36.22
2022-08-26T16:41:26.380Z,36.16
2022-08-26T16:43:55.758Z,36.10
2022-08-26T16:46:26.472Z,36.64
2022-08-26T16:48:56.728Z,37.11
2022-08-26T16:51:29.592Z,37.19
2022-08-26T16:53:59.119Z,37.42
2022-08-26T16:56:34.858Z,37.81
2022-08-26T16:59:05.885Z,37.64
2022-08-26T17:01:35.218Z,38.16
2022-08-26T17:04:04.074Z,38.74
2022-08-26T17:06:31.994Z,38.42
2022-08-26T17:09:00.133Z,38.33
2022-08-26T17:11:28.398Z,38.32
2022-08-26T17:13:57.899Z,38.70
2022-08-26T17:16:27.001Z,38.64
2022-08-26T17:19:00.286Z,39.13
2022-08-26T17:21:38.542Z,38.84
2022-08-26T17:24:10.096Z,38.96
2022-08-26T17:26:39.349Z,39.39
2022-08-26T17:29:18.698Z,39.91
2022-08-26T17:31:47.783Z,39.75
2022-08-26T17:34:16.008Z,39.79
2022-08-26T17:36:44.384Z,39.96
2022-08-26T17:39:14.625Z,40.24
2022-08-26T17:41:42.788Z,40.33
2022-08-26T17:44:13.417Z,40.82
2022-08-26T17:47:13.785Z,40.82
2022-08-26T17:49:45.609Z,41.30
2022-08-26T17:52:16.701Z,41.82
2022-08-26T17:54:44.609Z,42.61
2022-08-26T17:57:53.897Z,43.17
2022-08-26T18:00:27.218Z,43.49
2022-08-26T18:02:59.598Z,43.72
2022-08-26T18:05:27.903Z,43.96
2022-08-26T18:07:56.984Z,43.78
2022-08-26T18:10:27.779Z,43.89
2022-08-26T18:12:57.491Z,44.27
2022-08-26T18:15:27.813Z,44.67
2022-08-26T18:17:58.438Z,44.79
2022-08-26T18:20:26.536Z,45.04
2022-08-26T18:22:54.551Z,45.28
2022-08-26T18:25:23.425Z,45.50
2022-08-26T18:27:55.081Z,45.93
2022-08-26T18:30:23.250Z,45.91
2022-08-26T18:32:53.573Z,45.80
2022-08-26T18:35:21.605Z,46.22
2022-08-26T18:37:49.879Z,46.73
2022-08-26T18:40:17.941Z,47.55
2022-08-26T18:42:49.373Z,48.19
2022-08-26T18:45:24.980Z,49.19
2022-08-26T18:47:58.239Z,49.93
2022-08-26T18:50:26.160Z,50.17
2022-08-26T18:52:54.384Z,49.89
2022-08-26T18:55:26.220Z,50.34
2022-08-26T18:58:03.098Z,50.42
2022-08-26T19:00:37.233Z,50.29
2022-08-26T19:03:05.891Z,50.66
2022-08-26T19:05:49.208Z,50.95
2022-08-26T19:08:17.158Z,51.71
2022-08-26T19:10:45.401Z,51.47
2022-08-26T19:13:15.934Z,51.58
2022-08-26T19:15:49.578Z,52.46
2022-08-26T19:18:19.027Z,52.23
2022-08-26T19:20:48.067Z,52.05
2022-08-26T19:23:33.183Z,52.30
2022-08-26T19:26:04.576Z,52.46
2022-08-26T19:28:35.396Z,52.33
2022-08-26T19:31:10.537Z,52.23
2022-08-26T19:33:40.336Z,52.41
2022-08-26T19:36:18.576Z,52.54
2022-08-26T19:38:47.422Z,52.55
2022-08-26T19:41:20.837Z,52.77
2022-08-26T19:43:49.314Z,53.07
2022-08-26T19:46:20.916Z,53.17
2022-08-26T19:48:55.764Z,53.33
2022-08-26T19:51:31.068Z,53.48
2022-08-26T19:54:04.422Z,54.02
2022-08-26T19:56:35.138Z,54.57
2022-08-26T19:59:03.184Z,54.32
2022-08-26T20:01:38.488Z,54.63
2022-08-26T20:04:13.063Z,54.47
2022-08-26T20:06:41.133Z,54.72
2022-08-26T20:09:12.732Z,54.53
2022-08-26T20:11:42.921Z,54.70
2022-08-26T20:14:13.516Z,54.92
2022-08-26T20:16:42.437Z,55.43
2022-08-26T20:19:36.833Z,55.65
2022-08-26T20:22:06.103Z,56.01
2022-08-26T20:24:41.941Z,55.55
2022-08-26T20:27:10.031Z,56.27
2022-08-26T20:29:39.150Z,56.44
2022-08-26T20:32:12.203Z,56.95
2022-08-26T20:34:44.203Z,56.95
2022-08-26T20:37:23.823Z,57.13
2022-08-26T20:39:55.917Z,57.35
2022-08-26T20:42:28.806Z,57.28
2022-08-26T20:44:57.704Z,57.35
2022-08-26T20:47:27.012Z,57.49
2022-08-26T20:49:59.953Z,57.78
2022-08-26T20:52:28.564Z,58.08
2022-08-26T20:54:59.972Z,58.24
2022-08-26T20:57:46.692Z,58.61
2022-08-26T21:00:18.486Z,58.67
2022-08-26T21:02:49.478Z,59.06
2022-08-26T21:05:19.022Z,59.26
2022-08-26T21:07:51.553Z,59.43
2022-08-26T21:10:21.990Z,59.80
2022-08-26T21:12:51.733Z,60.05
2022-08-26T21:15:20.338Z,59.78
2022-08-26T21:17:48.795Z,60.41
2022-08-26T21:20:19.894Z,60.99
2022-08-26T21:22:47.759Z,61.06
2022-08-26T21:25:18.676Z,61.42
2022-08-26T21:27:46.976Z,61.58
2022-08-26T21:30:17.149Z,61.92
2022-08-26T21:32:47.223Z,62.11
2022-08-26T21:35:15.741Z,62.36
2022-08-26T21:37:44.792Z,62.57
2022-08-26T21:40:13.618Z,62.68
2022-08-26T21:42:41.562Z,62.79
2022-08-26T21:45:10.281Z,62.50
2022-08-26T21:47:40.913Z,62.60
2022-08-26T21:50:10.713Z,62.50
2022-08-26T21:52:39.474Z,62.32
2022-08-26T21:55:11.756Z,62.69
2022-08-26T21:57:39.850Z,63.09
2022-08-26T22:00:13.791Z,62.54
2022-08-26T22:02:45.611Z,63.13
2022-08-26T22:05:14.704Z,63.43
2022-08-26T22:07:42.734Z,63.43
2022-08-26T22:10:11.653Z,63.68
2022-08-26T22:12:39.982Z,63.85
2022-08-26T22:15:08.964Z,64.03
2022-08-26T22:17:37.880Z,64.20
2022-08-26T22:20:16.493Z,64.43
2022-08-26T22:22:45.261Z,64.51
2022-08-26T22:25:13.557Z,64.74
2022-08-26T22:27:47.657Z,64.94
2022-08-26T22:30:18.473Z,65.03
2022-08-26T22:32:47.962Z,65.11
2022-08-26T22:35:29.025Z,65.20
2022-08-26T22:37:58.986Z,65.24
2022-08-26T22:40:29.996Z,65.33
2022-08-26T22:43:03.209Z,65.14
2022-08-26T22:45:32.778Z,64.87
2022-08-26T22:48:06.340Z,64.80
2022-08-26T22:50:34.665Z,64.91
2022-08-26T22:53:05.221Z,64.92
2022-08-26T22:55:35.580Z,65.03
2022-08-26T22:58:10.020Z,65.13
2022-08-26T23:00:39.035Z,65.26
2022-08-26T23:03:10.941Z,65.49
2022-08-26T23:05:44.297Z,65.32
2022-08-26T23:08:15.158Z,65.56
2022-08-26T23:10:47.852Z,65.95
2022-08-26T23:13:19.625Z,66.05
2022-08-26T23:15:50.137Z,66.02
2022-08-26T23:18:18.188Z,66.38
2022-08-26T23:20:51.055Z,66.80
2022-08-26T23:23:24.032Z,66.94
2022-08-26T23:25:56.615Z,66.41
2022-08-26T23:28:29.076Z,66.82
2022-08-26T23:30:57.288Z,67.10
2022-08-26T23:33:45.669Z,67.29
2022-08-26T23:36:17.825Z,68.08
2022-08-26T23:38:52.483Z,68.42
2022-08-26T23:41:24.581Z,68.58
2022-08-26T23:43:52.413Z,68.82
2022-08-26T23:46:20.698Z,68.82
2022-08-26T23:48:49.155Z,68.95
2022-08-26T23:51:35.682Z,69.06
2022-08-26T23:54:03.535Z,69.05
2022-08-26T23:56:31.647Z,69.01
2022-08-26T23:58:59.880Z,68.80
